AEY weather

Akureyri Airport
Akureyri, Northeastern Region, Iceland

Public forecast

Using degrees Celsius for public forecast. Weather courtesy of forecast.io.

METAR (pilot weather report)

Retrieved 2019/03/25 05:00 UTC (8 minutes ago):

BIAR 250500Z 18007KT CAVOK M02/M04 Q1020

TAF (pilot weather forecast)

Retrieved 2019/03/25 03:04 UTC (2 hours ago):

TAF BIAR 250101Z 2503/2603 22007KT 9999 SCT020 BKN035 TX08/2515Z TNM04/2503Z BECMG 2504/2506 15012KT BECMG 2515/2518 19018G28KT TEMPO 2517/2603 19032G42KT